Terminal Aerodrome Forecast
Issued by NWS

Home | Current Version | Previous Version | Text Only | Print | Product List | Glossary On
Versions: 1 2 3 4 5 6 7 8 9 10 11 12
000
FTUS45 KRIW 280500
TAFRKS
TAF
KRKS 280529Z 2806/2906 08010KT P6SM SCT250
     FM281200 11007KT P6SM SCT150 BKN250
     FM281800 14007KT P6SM VCSH SCT080 BKN140
     FM282000 VRB15G25KT P6SM VCTS SCT070CB BKN120
     FM290300 VRB06KT P6SM -SHRA SCT060 OVC100=

USA.gov is the U.S. government's official web portal to all federal, state and local government web resources and services.